Enon, Ohio
Current Conditions -  °F | °C
As of 8:56 AM on Friday 19 Dec 2014 (Local Time) from KSGH Reporting Station
Haze Haze  
Wind Chill: 21°   Ceiling: 2000
Heat Index: 27°   Visibility: 5mi
Dew Point: 23°   Wind: 6mph
Humidity: 84%   Direction: 200°SSW
Pressure: 30.27"   Gusts: NA
Location:  39.88°N, 83.94°W
Report Text: KSGH 191356Z AUTO 20005KT 5SM BR OVC020 M03/M05 A3027 RMK AO2 T10271050 SLP264
Loading
Personal Weather Stations






























Interactive Weather Map New forecast layout! Learn more

10-Day Weather Forecast

Advertisements
Track Severe Weather on mobile